EDFM/MHG METAR and TAF weather

Enter ICAO airport designator
Station Type Date Time Source
EDFM METAR 2020/05/29 22:50 UTC NOAA

EDFM 292250Z 06006KT CAVOK 16/03 Q1023


Station Type Date Time Source
EDFM Decoded METAR 2020/05/29 22:50 UTC NOAA

Baden Wurttemberg, Neuostheim, Germany (EDFM) 49-28-21N 008-30-56E
May 29, 2020 - 06:50 PM EDT / 2020.05.29 2250 UTC
Wind: from the ENE (060 degrees) at 7 MPH (6 KT):0
Visibility: greater than 7 mile(s):0
Temperature: 60 F (16 C)
Dew Point: 37 F (3 C)
Relative Humidity: 41%
Pressure (altimeter): 30.21 in. Hg (1023 hPa)
ob: EDFM 292250Z 06006KT CAVOK 16/03 Q1023
cycle: 23

Station Type Date Time Source
EDFM TAF 2012/03/06 06:30 UTC NOAA

TAF EDFM 060519Z 0606/0621 15004KT 9999 FEW040

Example: see airport list